Time;durP1;ratioP1;P1;durP2;ratioP2;P2;SDS_P1;SDS_P2;PMS_P1;PMS_P2;Temp;Humidity;BMP_temperature;BMP_pressure;BME280_temperature;BME280_humidity;BME280_pressure;Samples;Min_cycle;Max_cycle;Signal;HPM_P1;HPM_P2
2023/09/27 00:01:04;;;;;;;20.30;16.65;;;15.10;99.40;;;;;;5074658;28;20044;-60
2023/09/27 00:03:30;;;;;;;20.17;16.95;;;15.10;98.90;;;;;;5074813;28;20055;-60
2023/09/27 00:05:55;;;;;;;21.98;16.38;;;15.10;99.90;;;;;;5074660;28;20033;-60
2023/09/27 00:08:21;;;;;;;20.05;16.95;;;15.00;99.90;;;;;;5074582;28;20139;-60
2023/09/27 00:10:47;;;;;;;20.58;16.90;;;15.00;99.70;;;;;;5074652;28;20485;-58
2023/09/27 00:13:13;;;;;;;20.98;16.95;;;15.00;99.90;;;;;;5074738;28;20040;-60
2023/09/27 00:15:38;;;;;;;20.02;15.85;;;15.00;99.90;;;;;;5074635;28;20042;-60
2023/09/27 00:18:06;;;;;;;19.48;16.40;;;15.00;99.90;;;;;;5074637;28;20438;-60
2023/09/27 00:20:32;;;;;;;20.42;16.63;;;15.00;99.90;;;;;;5074315;28;20491;-59
2023/09/27 00:22:58;;;;;;;19.90;17.08;;;15.00;99.90;;;;;;5074129;28;20060;-60
2023/09/27 00:25:23;;;;;;;21.00;16.50;;;14.90;99.90;;;;;;5072228;28;20555;-60
2023/09/27 00:27:49;;;;;;;19.42;16.17;;;14.90;99.90;;;;;;5073897;28;20036;-60
2023/09/27 00:30:16;;;;;;;19.60;15.95;;;14.90;99.90;;;;;;5074100;28;20040;-60
2023/09/27 00:32:45;;;;;;;20.38;15.63;;;14.90;99.90;;;;;;5074183;28;20041;-61
2023/09/27 00:35:18;;;;;;;19.83;15.65;;;14.90;99.90;;;;;;5072772;28;20102;-60
2023/09/27 00:37:45;;;;;;;20.92;16.17;;;14.90;99.90;;;;;;5073954;28;20452;-60
2023/09/27 00:40:13;;;;;;;18.48;16.08;;;14.90;99.90;;;;;;5074172;28;20116;-60
2023/09/27 00:42:38;;;;;;;19.60;15.77;;;14.80;99.90;;;;;;5074081;28;20036;-61
2023/09/27 00:45:05;;;;;;;22.40;17.05;;;14.80;99.90;;;;;;5074050;28;20120;-60
2023/09/27 00:47:32;;;;;;;20.25;16.05;;;14.80;99.90;;;;;;5072588;28;20052;-60
2023/09/27 00:49:58;;;;;;;18.65;15.40;;;14.70;99.90;;;;;;5073561;28;20040;-59
2023/09/27 00:52:24;;;;;;;19.30;16.42;;;14.70;99.90;;;;;;5073657;28;20045;-60
2023/09/27 00:54:51;;;;;;;20.17;16.50;;;14.70;99.90;;;;;;5074003;28;20045;-60
2023/09/27 00:57:18;;;;;;;21.15;16.77;;;14.70;99.90;;;;;;5073742;28;20112;-60
2023/09/27 00:59:44;;;;;;;19.55;16.98;;;14.70;99.90;;;;;;5073578;28;20033;-60
2023/09/27 01:02:12;;;;;;;22.20;17.77;;;14.70;99.90;;;;;;5073579;28;20119;-59
2023/09/27 01:04:39;;;;;;;21.08;16.70;;;14.60;99.90;;;;;;5073430;28;20049;-60
2023/09/27 01:07:05;;;;;;;21.05;17.05;;;14.60;99.90;;;;;;5072345;28;20070;-59
2023/09/27 01:09:32;;;;;;;20.80;18.00;;;14.60;99.90;;;;;;5073664;28;20041;-62
2023/09/27 01:11:58;;;;;;;22.77;17.25;;;14.60;99.90;;;;;;5073324;28;20044;-60
2023/09/27 01:14:23;;;;;;;21.20;17.35;;;14.70;99.90;;;;;;5072325;28;20045;-60
2023/09/27 01:16:50;;;;;;;22.10;17.05;;;14.70;99.90;;;;;;5073332;28;20033;-60
2023/09/27 01:19:15;;;;;;;22.23;17.00;;;14.70;99.90;;;;;;5073146;28;20047;-60
2023/09/27 01:21:41;;;;;;;22.55;17.42;;;14.70;99.90;;;;;;5073473;28;20040;-60
2023/09/27 01:24:08;;;;;;;19.88;17.10;;;14.70;99.90;;;;;;5073018;28;20084;-60
2023/09/27 01:26:36;;;;;;;20.02;16.40;;;14.70;99.90;;;;;;5072982;28;20120;-61
2023/09/27 01:29:02;;;;;;;20.08;16.70;;;14.70;99.90;;;;;;5073427;28;20045;-60
2023/09/27 01:31:28;;;;;;;22.80;16.75;;;14.60;99.90;;;;;;5072903;28;20048;-60
2023/09/27 01:33:53;;;;;;;21.00;16.58;;;14.70;99.90;;;;;;5072919;28;20042;-60
2023/09/27 01:36:20;;;;;;;23.30;16.50;;;14.70;99.90;;;;;;5072906;28;20515;-60
2023/09/27 01:38:45;;;;;;;22.90;17.02;;;14.70;99.90;;;;;;5072583;28;20082;-60
2023/09/27 01:41:11;;;;;;;21.90;17.10;;;14.70;99.90;;;;;;5072671;28;20119;-60
2023/09/27 01:43:37;;;;;;;19.48;16.90;;;14.70;99.90;;;;;;5072985;28;20041;-60
2023/09/27 01:46:02;;;;;;;18.75;16.02;;;14.70;99.90;;;;;;5072558;28;20045;-60
2023/09/27 01:48:28;;;;;;;19.60;17.00;;;14.60;99.90;;;;;;5072656;28;20040;-60
2023/09/27 01:50:54;;;;;;;18.88;16.38;;;14.60;99.90;;;;;;5071495;28;20477;-60
2023/09/27 01:53:19;;;;;;;23.08;17.80;;;14.60;99.90;;;;;;5072743;28;20158;-60
2023/09/27 01:55:47;;;;;;;22.20;17.85;;;14.60;99.90;;;;;;5072693;28;20040;-60
2023/09/27 01:58:13;;;;;;;21.67;17.33;;;14.50;99.90;;;;;;5072425;28;20053;-60
2023/09/27 02:00:38;;;;;;;20.63;16.70;;;14.50;99.90;;;;;;5072470;28;20067;-60
2023/09/27 02:03:04;;;;;;;22.58;18.23;;;14.50;99.90;;;;;;5072703;28;20115;-61
2023/09/27 02:05:31;;;;;;;20.90;17.65;;;14.50;99.90;;;;;;5072508;28;20039;-59
2023/09/27 02:07:57;;;;;;;19.27;16.88;;;14.50;99.90;;;;;;5072623;28;20059;-61
2023/09/27 02:10:24;;;;;;;23.75;17.38;;;14.50;99.90;;;;;;5072420;28;20079;-61
2023/09/27 02:12:49;;;;;;;23.25;17.52;;;14.50;99.90;;;;;;5072304;28;20040;-60
2023/09/27 02:15:15;;;;;;;22.58;17.55;;;14.50;99.90;;;;;;5072198;28;20047;-60
2023/09/27 02:17:42;;;;;;;20.90;17.88;;;14.50;99.90;;;;;;5072060;28;20040;-60
2023/09/27 02:20:13;;;;;;;21.90;18.00;;;14.40;99.90;;;;;;5072390;28;20036;-60
2023/09/27 02:22:40;;;;;;;21.08;17.42;;;14.50;99.90;;;;;;5070869;28;20110;-60
2023/09/27 02:25:11;;;;;;;21.40;17.70;;;14.40;99.90;;;;;;5072423;28;20105;-60
2023/09/27 02:27:38;;;;;;;20.37;17.30;;;14.40;99.90;;;;;;5071980;28;20045;-59
2023/09/27 02:30:11;;;;;;;22.60;18.70;;;14.40;99.90;;;;;;5072322;28;20036;-60
2023/09/27 02:32:37;;;;;;;21.75;18.85;;;14.40;99.90;;;;;;5072273;28;20111;-60
2023/09/27 02:35:04;;;;;;;21.08;17.98;;;14.40;99.90;;;;;;5071131;28;20366;-59
2023/09/27 02:37:31;;;;;;;23.70;18.02;;;14.30;99.90;;;;;;5070765;28;20420;-60
2023/09/27 02:39:58;;;;;;;22.70;18.85;;;14.30;99.90;;;;;;5072177;28;20481;-60
2023/09/27 02:42:24;;;;;;;22.45;19.17;;;14.30;99.90;;;;;;5072298;28;20090;-60
2023/09/27 02:44:50;;;;;;;21.77;19.20;;;14.20;99.90;;;;;;5071899;28;20516;-60
2023/09/27 02:47:16;;;;;;;23.17;18.77;;;14.30;99.90;;;;;;5072177;28;20064;-60
2023/09/27 02:49:42;;;;;;;21.77;18.70;;;14.20;99.90;;;;;;5074096;28;20481;-60
2023/09/27 02:52:07;;;;;;;24.27;19.13;;;14.20;99.90;;;;;;5076154;28;20520;-60
2023/09/27 02:54:33;;;;;;;24.00;19.52;;;14.20;99.90;;;;;;5076056;28;20041;-60
2023/09/27 02:56:59;;;;;;;23.88;19.08;;;14.20;99.90;;;;;;5075797;28;20115;-60
2023/09/27 02:59:27;;;;;;;20.60;18.10;;;14.20;99.90;;;;;;5075783;28;20043;-60
2023/09/27 03:01:53;;;;;;;21.95;18.42;;;14.20;99.90;;;;;;5075789;28;20505;-60
2023/09/27 03:04:19;;;;;;;21.73;17.60;;;14.10;99.90;;;;;;5075823;28;20040;-60
2023/09/27 03:06:48;;;;;;;21.42;18.55;;;14.10;99.90;;;;;;5075694;28;20056;-60
2023/09/27 03:09:15;;;;;;;21.83;18.80;;;14.10;99.90;;;;;;5076023;28;20483;-60
2023/09/27 03:11:42;;;;;;;22.85;19.17;;;14.10;99.90;;;;;;5075660;28;20101;-60
2023/09/27 03:14:08;;;;;;;21.33;18.33;;;14.10;99.90;;;;;;5075837;28;20396;-60
2023/09/27 03:16:34;;;;;;;22.67;18.35;;;14.00;99.90;;;;;;5075708;28;20123;-60
2023/09/27 03:19:00;;;;;;;21.60;18.75;;;14.00;99.90;;;;;;5075720;28;20041;-60
2023/09/27 03:21:29;;;;;;;25.65;19.23;;;14.00;99.90;;;;;;5075749;28;20507;-61
2023/09/27 03:23:55;;;;;;;24.33;19.67;;;13.90;99.90;;;;;;5075360;28;20052;-60
2023/09/27 03:26:22;;;;;;;23.40;19.20;;;14.00;99.90;;;;;;5075542;28;20066;-60
2023/09/27 03:28:50;;;;;;;23.20;18.55;;;14.00;99.90;;;;;;5075351;28;20377;-60
2023/09/27 03:31:15;;;;;;;26.45;19.45;;;14.00;99.90;;;;;;5074186;28;20442;-61
2023/09/27 03:33:41;;;;;;;27.13;20.48;;;13.90;99.90;;;;;;5075424;28;20066;-60
2023/09/27 03:36:07;;;;;;;23.05;18.45;;;14.00;99.90;;;;;;5075116;28;20044;-61
2023/09/27 03:38:33;;;;;;;24.15;19.95;;;14.00;99.90;;;;;;5075259;28;20040;-60
2023/09/27 03:40:59;;;;;;;26.50;20.45;;;14.00;99.90;;;;;;5075292;28;20063;-60
2023/09/27 03:43:24;;;;;;;26.17;20.02;;;14.00;99.90;;;;;;5075231;28;20040;-60
2023/09/27 03:45:51;;;;;;;23.77;19.75;;;14.10;99.90;;;;;;5075187;28;20051;-60
2023/09/27 03:48:19;;;;;;;23.88;19.90;;;14.00;99.90;;;;;;5074980;28;20048;-60
2023/09/27 03:50:45;;;;;;;24.17;20.08;;;13.90;99.90;;;;;;5075138;28;20098;-60
2023/09/27 03:53:11;;;;;;;25.80;20.45;;;13.90;99.90;;;;;;5074888;28;20520;-60
2023/09/27 03:55:36;;;;;;;24.48;19.35;;;14.00;99.90;;;;;;5075004;28;20089;-60
2023/09/27 03:58:02;;;;;;;23.90;20.38;;;14.00;99.90;;;;;;5073671;28;20037;-60
2023/09/27 04:00:28;;;;;;;25.77;20.60;;;13.90;99.90;;;;;;5073565;28;20068;-60
2023/09/27 04:02:54;;;;;;;25.25;20.75;;;13.90;99.90;;;;;;5074832;28;20444;-60
2023/09/27 04:05:23;;;;;;;23.98;19.88;;;13.90;99.90;;;;;;5073438;28;20045;-60
2023/09/27 04:07:49;;;;;;;23.90;19.90;;;13.90;99.90;;;;;;5074510;28;20080;-60
2023/09/27 04:10:16;;;;;;;26.05;21.20;;;13.80;99.90;;;;;;5074486;28;20079;-57
2023/09/27 04:12:42;;;;;;;26.35;21.30;;;13.80;99.90;;;;;;5074852;28;20615;-60
2023/09/27 04:15:09;;;;;;;25.27;21.35;;;13.80;99.90;;;;;;5074760;28;20092;-60
2023/09/27 04:17:35;;;;;;;23.17;20.45;;;13.80;99.90;;;;;;5074621;28;20048;-60
2023/09/27 04:20:06;;;;;;;26.00;21.35;;;13.80;99.90;;;;;;5074475;28;20672;-60
2023/09/27 04:22:32;;;;;;;24.83;20.08;;;13.70;99.90;;;;;;5074148;28;20060;-60
2023/09/27 04:24:57;;;;;;;23.70;19.77;;;13.80;99.90;;;;;;5074237;28;20045;-60
2023/09/27 04:27:23;;;;;;;24.20;19.42;;;13.80;99.90;;;;;;5074563;28;20048;-60
2023/09/27 04:29:51;;;;;;;24.13;20.08;;;13.80;99.90;;;;;;5074220;28;20041;-60
2023/09/27 04:32:16;;;;;;;27.58;20.90;;;13.70;99.90;;;;;;5073023;28;20080;-60
2023/09/27 04:34:42;;;;;;;24.75;19.95;;;13.60;99.90;;;;;;5074220;28;20507;-60
2023/09/27 04:37:08;;;;;;;28.38;20.90;;;13.60;99.90;;;;;;5073876;28;20507;-60
2023/09/27 04:39:34;;;;;;;25.23;19.75;;;13.60;99.90;;;;;;5074406;28;20047;-60
2023/09/27 04:42:00;;;;;;;26.30;20.88;;;13.60;99.90;;;;;;5074132;28;20062;-60
2023/09/27 04:44:25;;;;;;;26.20;20.92;;;13.60;99.90;;;;;;5073795;28;20119;-60
2023/09/27 04:46:52;;;;;;;26.52;21.48;;;13.60;99.90;;;;;;5072564;28;20130;-58
2023/09/27 04:49:17;;;;;;;28.05;20.80;;;13.60;99.90;;;;;;5073864;28;20480;-60
2023/09/27 04:51:43;;;;;;;28.50;20.85;;;13.60;99.90;;;;;;5073724;28;20040;-60
2023/09/27 04:54:08;;;;;;;26.02;20.98;;;13.60;99.90;;;;;;5074016;28;20041;-60
2023/09/27 04:56:34;;;;;;;27.17;20.85;;;13.60;99.90;;;;;;5073925;28;20245;-60
2023/09/27 04:59:07;;;;;;;26.15;20.88;;;13.60;99.90;;;;;;5073909;28;20042;-60
2023/09/27 05:01:32;;;;;;;28.08;21.92;;;13.50;99.90;;;;;;5055668;28;20507;-60
2023/09/27 05:03:58;;;;;;;26.50;22.00;;;13.50;99.90;;;;;;5072466;28;20094;-61
2023/09/27 05:06:24;;;;;;;27.23;22.08;;;13.50;99.90;;;;;;5072228;28;20101;-60
2023/09/27 05:08:50;;;;;;;27.15;21.88;;;13.40;99.90;;;;;;5073752;28;20392;-60
2023/09/27 05:11:18;;;;;;;27.15;22.00;;;13.50;99.90;;;;;;5073077;28;20508;-61
2023/09/27 05:13:46;;;;;;;29.02;22.55;;;13.40;99.90;;;;;;5071849;28;20041;-60
2023/09/27 05:16:12;;;;;;;27.20;21.95;;;13.40;99.90;;;;;;5073380;28;20054;-59
2023/09/27 05:18:38;;;;;;;30.80;22.13;;;13.40;99.90;;;;;;5073262;28;20481;-61
2023/09/27 05:21:05;;;;;;;29.33;21.85;;;13.40;99.90;;;;;;5073470;28;20090;-60
2023/09/27 05:23:31;;;;;;;28.77;22.33;;;13.40;99.90;;;;;;5073099;28;20055;-60
2023/09/27 05:25:57;;;;;;;29.63;22.92;;;13.40;99.90;;;;;;5073030;28;20040;-60
2023/09/27 05:28:22;;;;;;;29.08;22.10;;;13.30;99.90;;;;;;5073115;28;20128;-60
2023/09/27 05:30:48;;;;;;;28.92;22.88;;;13.40;99.90;;;;;;5072890;28;20118;-60
2023/09/27 05:33:14;;;;;;;28.27;22.15;;;13.40;99.90;;;;;;5072892;28;20036;-59
2023/09/27 05:35:39;;;;;;;25.25;19.75;;;13.40;99.90;;;;;;5072789;28;20481;-60
2023/09/27 05:38:06;;;;;;;29.92;20.67;;;13.40;99.90;;;;;;5072660;28;20150;-60
2023/09/27 05:40:31;;;;;;;27.88;21.30;;;13.40;99.90;;;;;;5055195;28;20048;-60
2023/09/27 05:42:57;;;;;;;27.27;20.45;;;13.40;99.90;;;;;;5072763;28;20043;-60
2023/09/27 05:45:23;;;;;;;25.88;21.05;;;13.30;99.90;;;;;;5072831;28;20047;-59
2023/09/27 05:47:49;;;;;;;28.80;20.40;;;13.40;99.90;;;;;;5072609;28;20477;-60
2023/09/27 05:50:15;;;;;;;25.60;21.02;;;13.40;99.90;;;;;;5072333;28;20151;-60
2023/09/27 05:52:46;;;;;;;25.30;21.05;;;13.40;99.90;;;;;;5072426;28;20044;-60
2023/09/27 05:55:12;;;;;;;26.45;19.92;;;13.40;99.90;;;;;;5072704;28;20047;-60
2023/09/27 05:57:38;;;;;;;26.98;20.48;;;13.40;99.90;;;;;;5072024;28;20037;-60
2023/09/27 06:00:15;;;;;;;26.08;19.75;;;13.50;99.90;;;;;;5072406;28;20041;-60
2023/09/27 06:02:41;;;;;;;28.48;20.25;;;13.50;99.90;;;;;;5072578;28;20043;-59
2023/09/27 06:05:08;;;;;;;25.35;20.08;;;13.50;99.90;;;;;;5072627;28;20399;-60
2023/09/27 06:07:34;;;;;;;25.90;20.30;;;13.50;99.90;;;;;;5072636;28;20127;-60
2023/09/27 06:10:00;;;;;;;24.55;19.83;;;13.60;99.90;;;;;;5071072;28;20127;-59
2023/09/27 06:12:25;;;;;;;26.45;19.92;;;13.60;99.90;;;;;;5072580;28;20086;-60
2023/09/27 06:14:51;;;;;;;27.98;21.40;;;13.60;99.90;;;;;;5072262;28;20052;-60
2023/09/27 06:17:17;;;;;;;27.38;20.73;;;13.60;99.90;;;;;;5072099;28;20047;-59
2023/09/27 06:19:44;;;;;;;26.98;20.67;;;13.60;99.90;;;;;;5072404;28;20044;-60
2023/09/27 06:22:13;;;;;;;27.70;20.02;;;13.70;99.90;;;;;;5071978;28;20060;-60
2023/09/27 06:24:40;;;;;;;27.48;20.35;;;13.60;99.90;;;;;;5072024;28;20100;-60
2023/09/27 06:27:06;;;;;;;26.52;20.67;;;13.70;99.90;;;;;;5071221;28;20054;-60
2023/09/27 06:29:33;;;;;;;30.63;21.80;;;13.80;99.90;;;;;;5070788;28;20468;-60
2023/09/27 06:31:58;;;;;;;27.30;21.73;;;13.80;99.90;;;;;;5071999;28;20107;-60
2023/09/27 06:34:24;;;;;;;28.27;20.77;;;13.80;99.90;;;;;;5072158;28;20374;-60
2023/09/27 06:36:51;;;;;;;27.05;20.63;;;13.80;99.90;;;;;;5072020;28;20435;-60
2023/09/27 06:39:21;;;;;;;27.63;20.90;;;13.80;99.90;;;;;;5072040;28;20084;-60
2023/09/27 06:41:47;;;;;;;30.00;21.85;;;13.80;99.90;;;;;;5071950;28;20080;-60
2023/09/27 06:44:12;;;;;;;27.92;21.92;;;13.90;99.90;;;;;;5071929;28;20075;-60
2023/09/27 06:46:38;;;;;;;26.65;21.05;;;14.00;99.90;;;;;;5072170;28;20036;-60
2023/09/27 06:49:04;;;;;;;26.83;21.23;;;14.00;99.90;;;;;;5072078;28;20391;-60
2023/09/27 06:51:31;;;;;;;29.95;23.45;;;14.10;99.90;;;;;;5072092;28;20040;-60
2023/09/27 06:53:57;;;;;;;29.17;22.25;;;14.20;99.90;;;;;;5071927;28;20043;-60
2023/09/27 06:56:23;;;;;;;29.58;21.77;;;14.30;99.90;;;;;;5072031;28;20187;-60
2023/09/27 06:58:49;;;;;;;33.38;23.33;;;14.40;99.90;;;;;;5070293;28;20045;-60
2023/09/27 07:01:18;;;;;;;28.52;22.38;;;14.40;99.90;;;;;;5071905;28;20401;-60
2023/09/27 07:03:44;;;;;;;31.05;22.08;;;14.60;99.90;;;;;;5071980;28;20064;-60
2023/09/27 07:06:09;;;;;;;26.30;20.60;;;14.50;99.90;;;;;;5070592;28;20071;-60
2023/09/27 07:08:35;;;;;;;31.60;22.00;;;14.60;99.90;;;;;;5071983;28;20049;-60
2023/09/27 07:11:05;;;;;;;28.17;21.30;;;14.60;99.90;;;;;;5071692;28;20120;-59
2023/09/27 07:13:32;;;;;;;26.92;21.05;;;14.60;99.90;;;;;;5071951;28;20392;-60
2023/09/27 07:15:59;;;;;;;27.70;21.77;;;14.70;99.90;;;;;;5070417;28;20049;-60
2023/09/27 07:18:25;;;;;;;27.55;22.10;;;14.70;99.90;;;;;;5071652;28;20056;-60
2023/09/27 07:20:51;;;;;;;25.30;20.05;;;14.80;99.90;;;;;;5071582;28;20485;-60
2023/09/27 07:23:17;;;;;;;28.35;21.38;;;14.90;99.90;;;;;;5071601;28;20052;-60
2023/09/27 07:25:44;;;;;;;30.48;22.45;;;15.00;99.90;;;;;;5071808;28;20032;-60
2023/09/27 07:28:11;;;;;;;29.20;22.17;;;15.10;99.90;;;;;;5071467;28;20044;-60
2023/09/27 07:30:37;;;;;;;26.30;22.30;;;15.10;99.90;;;;;;5071745;28;20037;-60
2023/09/27 07:33:10;;;;;;;30.13;22.48;;;15.20;99.90;;;;;;5071669;28;20357;-60
2023/09/27 07:35:42;;;;;;;25.02;20.55;;;15.20;99.90;;;;;;5073376;28;20080;-60
2023/09/27 07:38:10;;;;;;;26.80;20.95;;;15.30;99.90;;;;;;5073931;28;20044;-60
2023/09/27 07:40:36;;;;;;;28.92;21.45;;;15.30;99.90;;;;;;5074158;28;20441;-60
2023/09/27 07:43:02;;;;;;;28.88;22.35;;;15.40;99.90;;;;;;5075069;28;20492;-60
2023/09/27 07:45:31;;;;;;;25.33;21.45;;;15.40;99.90;;;;;;5075098;28;20044;-60
2023/09/27 07:47:57;;;;;;;28.80;21.02;;;15.50;99.90;;;;;;5073849;28;20110;-60
2023/09/27 07:50:27;;;;;;;28.98;22.25;;;15.60;99.90;;;;;;5074914;28;20044;-60
2023/09/27 07:53:09;;;;;;;29.45;22.25;;;15.60;99.90;;;;;;5075168;28;20052;-60
2023/09/27 07:55:43;;;;;;;29.10;22.60;;;15.60;99.90;;;;;;5074953;28;20068;-60
2023/09/27 07:58:09;;;;;;;29.58;23.02;;;15.70;99.90;;;;;;5074936;28;20040;-58
2023/09/27 08:00:35;;;;;;;30.17;22.98;;;15.70;99.90;;;;;;5074923;28;20435;-60
2023/09/27 08:03:02;;;;;;;28.23;23.27;;;15.70;99.90;;;;;;5074733;28;20090;-60
2023/09/27 08:05:28;;;;;;;26.60;22.55;;;15.80;99.90;;;;;;5074821;28;20063;-59
2023/09/27 08:07:54;;;;;;;29.83;23.10;;;15.90;99.90;;;;;;5074610;28;20041;-61
2023/09/27 08:10:21;;;;;;;29.63;22.70;;;16.00;99.90;;;;;;5074758;28;20043;-61
2023/09/27 08:12:47;;;;;;;32.42;23.58;;;15.90;99.90;;;;;;5074519;28;20090;-60
2023/09/27 08:15:13;;;;;;;30.55;23.60;;;16.00;99.90;;;;;;5074410;28;20044;-61
2023/09/27 08:17:39;;;;;;;29.95;22.83;;;16.20;99.90;;;;;;5074156;28;20041;-60
2023/09/27 08:20:07;;;;;;;31.67;23.58;;;16.30;99.90;;;;;;5074406;28;20040;-60
2023/09/27 08:22:34;;;;;;;31.52;23.63;;;16.40;99.90;;;;;;5074237;28;20060;-60
2023/09/27 08:25:01;;;;;;;30.13;22.30;;;16.50;99.90;;;;;;5074544;28;20044;-60
2023/09/27 08:27:26;;;;;;;30.08;23.98;;;16.60;99.90;;;;;;5074434;28;20044;-60
2023/09/27 08:29:53;;;;;;;29.25;21.92;;;16.70;99.90;;;;;;5074158;28;20147;-60
2023/09/27 08:32:18;;;;;;;33.05;22.60;;;16.90;99.90;;;;;;5073129;28;20131;-60
2023/09/27 08:34:46;;;;;;;29.08;22.02;;;16.90;99.90;;;;;;5074140;28;20140;-60
2023/09/27 08:37:12;;;;;;;29.02;22.60;;;17.00;99.90;;;;;;5074386;28;20045;-60
2023/09/27 08:39:38;;;;;;;32.17;23.65;;;17.10;99.90;;;;;;5074313;28;20036;-60
2023/09/27 08:42:04;;;;;;;33.25;22.42;;;17.10;99.90;;;;;;5074077;28;20045;-60
2023/09/27 08:44:31;;;;;;;27.42;21.95;;;17.20;99.90;;;;;;5074036;28;20123;-60
2023/09/27 08:46:57;;;;;;;31.92;23.67;;;17.20;99.90;;;;;;5072770;28;20044;-60
2023/09/27 08:49:24;;;;;;;29.63;22.98;;;17.30;99.90;;;;;;5073745;28;20048;-60
2023/09/27 08:51:51;;;;;;;28.90;23.35;;;17.40;99.90;;;;;;5073890;28;20040;-60
2023/09/27 08:54:19;;;;;;;27.80;20.88;;;17.50;99.90;;;;;;5074012;28;20102;-60
2023/09/27 08:56:48;;;;;;;29.90;21.48;;;17.70;99.90;;;;;;5073970;28;20059;-60
2023/09/27 08:59:18;;;;;;;26.45;19.88;;;17.80;99.90;;;;;;5073572;28;20037;-60
2023/09/27 09:01:44;;;;;;;28.17;20.83;;;17.80;99.90;;;;;;5073712;28;20037;-60
2023/09/27 09:04:13;;;;;;;26.92;19.88;;;17.90;99.90;;;;;;5073569;28;20048;-61
2023/09/27 09:06:40;;;;;;;28.40;20.73;;;18.00;99.90;;;;;;5073749;28;20074;-60
2023/09/27 09:09:10;;;;;;;26.58;19.40;;;18.10;99.90;;;;;;5073643;28;20048;-60
2023/09/27 09:11:47;;;;;;;28.30;19.98;;;18.20;99.90;;;;;;5073409;28;20045;-60
2023/09/27 09:14:17;;;;;;;26.88;19.45;;;18.30;99.90;;;;;;5072009;28;20051;-60
2023/09/27 09:16:53;;;;;;;25.98;19.60;;;18.40;99.90;;;;;;5073544;28;20036;-60
2023/09/27 09:19:22;;;;;;;24.75;16.95;;;18.50;99.90;;;;;;5073417;28;20037;-60
2023/09/27 09:22:17;;;;;;;24.10;17.10;;;18.70;99.90;;;;;;5073295;28;20044;-60
2023/09/27 09:24:43;;;;;;;21.63;16.27;;;18.70;99.90;;;;;;5073118;28;20036;-60
2023/09/27 09:27:11;;;;;;;23.65;14.30;;;18.70;99.90;;;;;;5073132;28;20043;-60
2023/09/27 09:29:50;;;;;;;26.77;15.95;;;18.80;99.90;;;;;;5073416;28;20040;-61
2023/09/27 09:32:21;;;;;;;22.98;13.57;;;18.90;99.90;;;;;;5072988;28;20040;-61
2023/09/27 09:34:49;;;;;;;17.73;11.50;;;18.90;99.90;;;;;;5072027;28;20493;-61
2023/09/27 09:37:23;;;;;;;19.77;12.45;;;18.80;98.50;;;;;;5072874;28;20047;-60
2023/09/27 09:39:53;;;;;;;16.88;11.40;;;18.90;99.90;;;;;;5072018;28;20459;-60
2023/09/27 09:42:33;;;;;;;18.30;11.82;;;19.00;99.90;;;;;;5072858;28;20048;-60
2023/09/27 09:45:00;;;;;;;18.52;11.90;;;19.10;99.90;;;;;;5073071;28;20039;-61
2023/09/27 09:47:29;;;;;;;23.45;13.50;;;19.20;99.90;;;;;;5072693;28;20044;-60
2023/09/27 09:49:55;;;;;;;18.10;10.75;;;19.30;97.80;;;;;;5072897;28;20036;-60
2023/09/27 09:52:26;;;;;;;21.25;14.27;;;19.40;99.90;;;;;;5071388;28;20131;-60
2023/09/27 09:54:57;;;;;;;17.48;11.93;;;19.40;93.10;;;;;;5072721;28;20123;-61
2023/09/27 09:57:35;;;;;;;21.30;11.80;;;19.40;93.80;;;;;;5072719;28;20045;-60
2023/09/27 10:00:16;;;;;;;18.30;10.93;;;19.40;86.30;;;;;;5072806;28;20044;-60
2023/09/27 10:02:49;;;;;;;16.10;10.03;;;19.30;90.00;;;;;;5072601;28;20048;-59
2023/09/27 10:05:19;;;;;;;15.65;9.80;;;19.30;78.80;;;;;;5072515;28;20119;-60
2023/09/27 10:07:46;;;;;;;16.67;8.88;;;19.30;78.80;;;;;;5072605;28;20044;-60
2023/09/27 10:10:15;;;;;;;14.02;8.20;;;19.30;81.50;;;;;;5072241;28;20040;-60
2023/09/27 10:12:46;;;;;;;14.90;6.95;;;19.30;75.90;;;;;;5071044;28;20044;-60
2023/09/27 10:15:16;;;;;;;12.82;7.38;;;19.40;76.50;;;;;;5071134;28;20046;-61
2023/09/27 10:17:42;;;;;;;15.35;7.07;;;19.50;74.10;;;;;;5072489;28;20036;-60
2023/09/27 10:20:15;;;;;;;14.40;8.35;;;19.50;66.90;;;;;;5072196;28;20572;-60
2023/09/27 10:22:42;;;;;;;15.25;7.22;;;19.50;59.40;;;;;;5071983;28;20076;-60
2023/09/27 10:25:26;;;;;;;16.25;8.13;;;19.40;65.10;;;;;;5072310;28;20040;-60
2023/09/27 10:28:01;;;;;;;14.13;7.82;;;19.40;67.80;;;;;;5072195;28;20060;-60
2023/09/27 10:30:48;;;;;;;14.20;8.23;;;19.30;73.00;;;;;;5070762;28;20097;-60
2023/09/27 10:33:20;;;;;;;18.92;8.13;;;19.20;72.10;;;;;;5070617;28;20102;-60
2023/09/27 10:36:01;;;;;;;15.55;7.43;;;19.20;77.60;;;;;;5072223;28;20400;-60
2023/09/27 10:38:49;;;;;;;14.77;8.02;;;19.20;75.10;;;;;;5072066;28;20043;-60
2023/09/27 10:41:46;;;;;;;16.50;8.25;;;19.10;74.40;;;;;;5068458;28;20110;-60
2023/09/27 10:44:25;;;;;;;17.35;8.75;;;19.20;78.90;;;;;;5067534;28;20361;-60
2023/09/27 10:46:51;;;;;;;18.33;9.10;;;19.20;81.60;;;;;;5071993;28;20032;-60
2023/09/27 10:49:21;;;;;;;15.35;7.82;;;19.20;84.50;;;;;;5071978;28;20441;-60
2023/09/27 10:51:46;;;;;;;17.77;9.65;;;19.20;89.90;;;;;;5072306;28;20082;-60
2023/09/27 10:54:12;;;;;;;16.42;8.82;;;19.20;85.40;;;;;;5071898;28;20467;-60
2023/09/27 10:56:42;;;;;;;15.80;7.85;;;19.20;85.40;;;;;;5071924;28;20095;-60
2023/09/27 10:59:08;;;;;;;13.95;8.15;;;19.30;87.70;;;;;;5071877;28;20091;-60
2023/09/27 11:01:35;;;;;;;17.15;8.68;;;19.20;92.90;;;;;;5072022;28;20445;-61
2023/09/27 11:04:03;;;;;;;16.73;7.40;;;19.20;91.30;;;;;;5071826;28;20366;-61
2023/09/27 11:06:33;;;;;;;14.13;7.28;;;19.30;91.30;;;;;;5071719;28;20040;-60
2023/09/27 11:09:12;;;;;;;14.75;6.65;;;19.30;90.00;;;;;;5070690;28;20048;-61
2023/09/27 11:11:42;;;;;;;13.68;7.07;;;19.30;90.20;;;;;;5073755;28;20036;-60
2023/09/27 11:14:08;;;;;;;13.05;6.70;;;19.40;82.90;;;;;;5075860;28;20070;-60
2023/09/27 11:16:34;;;;;;;13.60;5.97;;;19.40;79.60;;;;;;5075534;28;20127;-61
2023/09/27 11:18:59;;;;;;;12.65;6.35;;;19.40;77.50;;;;;;5075492;28;20080;-60
2023/09/27 11:21:26;;;;;;;14.88;6.85;;;19.40;73.90;;;;;;5075503;28;20127;-61
2023/09/27 11:23:56;;;;;;;12.57;6.15;;;19.50;74.00;;;;;;5074037;28;20531;-60
2023/09/27 11:26:27;;;;;;;10.73;6.35;;;19.50;78.30;;;;;;5075601;28;20098;-60
2023/09/27 11:28:59;;;;;;;13.93;6.82;;;19.60;74.10;;;;;;5075348;28;20051;-60
2023/09/27 11:31:27;;;;;;;13.73;5.60;;;19.60;74.10;;;;;;5075373;28;20459;-60
2023/09/27 11:33:53;;;;;;;15.15;6.18;;;19.60;73.70;;;;;;5075196;28;20369;-60
2023/09/27 11:36:18;;;;;;;10.43;5.60;;;19.70;77.00;;;;;;5075382;28;20119;-61
2023/09/27 11:38:50;;;;;;;11.80;4.88;;;19.80;75.00;;;;;;5075245;28;20040;-60
2023/09/27 11:41:19;;;;;;;12.65;5.20;;;19.90;74.40;;;;;;5075132;28;20043;-61
2023/09/27 11:43:45;;;;;;;10.50;4.32;;;20.00;66.20;;;;;;5075412;28;20037;-61
2023/09/27 11:46:11;;;;;;;11.02;4.50;;;20.00;67.10;;;;;;5074987;28;20068;-60
2023/09/27 11:48:39;;;;;;;13.40;5.38;;;20.00;53.50;;;;;;5074852;28;20443;-61
2023/09/27 11:51:05;;;;;;;11.52;4.80;;;20.00;51.90;;;;;;5074856;28;20041;-60
2023/09/27 11:53:31;;;;;;;8.68;4.15;;;19.90;52.80;;;;;;5073922;28;20032;-60
2023/09/27 11:55:59;;;;;;;11.70;4.68;;;19.90;55.40;;;;;;5074902;28;20541;-61
2023/09/27 11:58:25;;;;;;;10.45;5.10;;;19.80;52.90;;;;;;5074861;28;20056;-61
2023/09/27 12:00:51;;;;;;;10.52;4.63;;;19.80;50.50;;;;;;5074926;28;20094;-61
2023/09/27 12:03:17;;;;;;;10.18;4.90;;;19.80;57.30;;;;;;5074732;28;20483;-61
2023/09/27 12:05:43;;;;;;;9.38;4.78;;;19.80;56.00;;;;;;5074947;28;20028;-61
2023/09/27 12:08:08;;;;;;;10.48;5.20;;;19.80;57.90;;;;;;5075021;28;20115;-60
2023/09/27 12:10:34;;;;;;;11.38;5.18;;;20.10;56.30;;;;;;5073335;28;20587;-60
2023/09/27 12:13:00;;;;;;;13.20;5.32;;;20.60;60.40;;;;;;5074898;28;20115;-61
2023/09/27 12:15:26;;;;;;;12.35;5.70;;;20.90;52.00;;;;;;5074453;28;20059;-61
2023/09/27 12:17:52;;;;;;;11.13;5.72;;;21.10;27.00;;;;;;5074427;28;20497;-61
2023/09/27 12:20:18;;;;;;;12.88;5.55;;;21.30;22.50;;;;;;5073155;28;20037;-60
2023/09/27 12:22:43;;;;;;;10.80;5.22;;;21.30;17.40;;;;;;5074221;28;20048;-61
2023/09/27 12:25:09;;;;;;;11.82;5.40;;;21.30;18.10;;;;;;5074358;28;20427;-61
2023/09/27 12:27:35;;;;;;;9.45;5.20;;;21.30;23.20;;;;;;5074097;28;20055;-60
2023/09/27 12:30:01;;;;;;;12.70;5.00;;;21.30;18.10;;;;;;5074291;28;20036;-61